sensor_id;sensor_type;location;lat;lon;timestamp;P1;durP1;ratioP1;P2;durP2;ratioP2
9559;SDS011;4818;50.860;4.648;2023-07-29T00:02:14;3.67;;;0.52;;
9559;SDS011;4818;50.860;4.648;2023-07-29T00:04:40;0.65;;;0.40;;
9559;SDS011;4818;50.860;4.648;2023-07-29T00:07:07;1.70;;;0.30;;
9559;SDS011;4818;50.860;4.648;2023-07-29T00:09:33;4.95;;;0.52;;
9559;SDS011;4818;50.860;4.648;2023-07-29T00:11:59;4.47;;;0.73;;
9559;SDS011;4818;50.860;4.648;2023-07-29T00:14:25;1.15;;;0.60;;
9559;SDS011;4818;50.860;4.648;2023-07-29T00:16:52;1.73;;;0.47;;
9559;SDS011;4818;50.860;4.648;2023-07-29T00:19:18;3.35;;;0.45;;
9559;SDS011;4818;50.860;4.648;2023-07-29T00:21:45;2.80;;;0.30;;
9559;SDS011;4818;50.860;4.648;2023-07-29T00:24:11;4.03;;;0.38;;
9559;SDS011;4818;50.860;4.648;2023-07-29T00:26:37;17.10;;;0.95;;
9559;SDS011;4818;50.860;4.648;2023-07-29T00:29:03;4.55;;;0.65;;
9559;SDS011;4818;50.860;4.648;2023-07-29T00:31:30;0.70;;;0.30;;
9559;SDS011;4818;50.860;4.648;2023-07-29T00:33:56;1.95;;;0.30;;
9559;SDS011;4818;50.860;4.648;2023-07-29T00:36:23;1.33;;;0.40;;
9559;SDS011;4818;50.860;4.648;2023-07-29T00:38:49;0.90;;;0.30;;
9559;SDS011;4818;50.860;4.648;2023-07-29T00:41:18;3.33;;;0.65;;
9559;SDS011;4818;50.860;4.648;2023-07-29T00:43:44;0.80;;;0.20;;
9559;SDS011;4818;50.860;4.648;2023-07-29T00:46:10;1.20;;;0.20;;
9559;SDS011;4818;50.860;4.648;2023-07-29T00:48:38;0.68;;;0.13;;
9559;SDS011;4818;50.860;4.648;2023-07-29T00:51:04;0.95;;;0.22;;
9559;SDS011;4818;50.860;4.648;2023-07-29T00:53:31;2.10;;;0.30;;
9559;SDS011;4818;50.860;4.648;2023-07-29T00:55:58;1.42;;;0.30;;
9559;SDS011;4818;50.860;4.648;2023-07-29T00:58:24;2.15;;;0.20;;
9559;SDS011;4818;50.860;4.648;2023-07-29T01:00:50;2.08;;;0.30;;
9559;SDS011;4818;50.860;4.648;2023-07-29T01:03:17;4.13;;;0.30;;
9559;SDS011;4818;50.860;4.648;2023-07-29T01:08:37;4.93;;;0.30;;
9559;SDS011;4818;50.860;4.648;2023-07-29T01:11:17;1.60;;;0.30;;
9559;SDS011;4818;50.860;4.648;2023-07-29T01:14:36;2.63;;;0.47;;
9559;SDS011;4818;50.860;4.648;2023-07-29T01:16:42;0.85;;;0.40;;
9559;SDS011;4818;50.860;4.648;2023-07-29T01:19:12;0.70;;;0.32;;
9559;SDS011;4818;50.860;4.648;2023-07-29T01:21:40;1.77;;;0.30;;
9559;SDS011;4818;50.860;4.648;2023-07-29T01:24:07;4.10;;;0.30;;
9559;SDS011;4818;50.860;4.648;2023-07-29T01:26:33;2.10;;;0.20;;
9559;SDS011;4818;50.860;4.648;2023-07-29T01:28:59;2.17;;;0.30;;
9559;SDS011;4818;50.860;4.648;2023-07-29T01:31:38;0.80;;;0.30;;
9559;SDS011;4818;50.860;4.648;2023-07-29T01:37:00;6.90;;;0.75;;
9559;SDS011;4818;50.860;4.648;2023-07-29T01:39:28;0.70;;;0.20;;
9559;SDS011;4818;50.860;4.648;2023-07-29T01:41:56;1.08;;;0.30;;
9559;SDS011;4818;50.860;4.648;2023-07-29T01:44:22;3.05;;;0.28;;
9559;SDS011;4818;50.860;4.648;2023-07-29T01:46:49;4.68;;;0.40;;
9559;SDS011;4818;50.860;4.648;2023-07-29T01:49:15;4.60;;;0.60;;
9559;SDS011;4818;50.860;4.648;2023-07-29T01:51:41;2.78;;;0.32;;
9559;SDS011;4818;50.860;4.648;2023-07-29T01:54:08;1.20;;;0.20;;
9559;SDS011;4818;50.860;4.648;2023-07-29T01:56:35;2.60;;;0.47;;
9559;SDS011;4818;50.860;4.648;2023-07-29T01:59:02;4.15;;;0.25;;
9559;SDS011;4818;50.860;4.648;2023-07-29T02:01:28;2.90;;;0.32;;
9559;SDS011;4818;50.860;4.648;2023-07-29T02:03:56;1.25;;;0.30;;
9559;SDS011;4818;50.860;4.648;2023-07-29T02:06:22;1.90;;;0.30;;
9559;SDS011;4818;50.860;4.648;2023-07-29T02:08:50;6.07;;;0.40;;
9559;SDS011;4818;50.860;4.648;2023-07-29T02:11:17;4.95;;;0.50;;
9559;SDS011;4818;50.860;4.648;2023-07-29T02:13:45;6.75;;;0.60;;
9559;SDS011;4818;50.860;4.648;2023-07-29T02:16:11;0.95;;;0.30;;
9559;SDS011;4818;50.860;4.648;2023-07-29T02:18:38;2.47;;;0.20;;
9559;SDS011;4818;50.860;4.648;2023-07-29T02:21:04;2.60;;;0.30;;
9559;SDS011;4818;50.860;4.648;2023-07-29T02:23:30;1.17;;;0.60;;
9559;SDS011;4818;50.860;4.648;2023-07-29T02:25:56;3.33;;;0.47;;
9559;SDS011;4818;50.860;4.648;2023-07-29T02:28:23;0.60;;;0.20;;
9559;SDS011;4818;50.860;4.648;2023-07-29T02:30:54;0.88;;;0.40;;
9559;SDS011;4818;50.860;4.648;2023-07-29T02:33:34;6.40;;;0.25;;
9559;SDS011;4818;50.860;4.648;2023-07-29T02:36:00;1.20;;;0.35;;
9559;SDS011;4818;50.860;4.648;2023-07-29T02:38:27;7.15;;;0.65;;
9559;SDS011;4818;50.860;4.648;2023-07-29T02:40:53;5.95;;;0.52;;
9559;SDS011;4818;50.860;4.648;2023-07-29T02:43:19;2.10;;;0.70;;
9559;SDS011;4818;50.860;4.648;2023-07-29T02:45:46;1.65;;;0.50;;
9559;SDS011;4818;50.860;4.648;2023-07-29T02:48:12;1.10;;;0.30;;
9559;SDS011;4818;50.860;4.648;2023-07-29T02:50:39;0.70;;;0.30;;
9559;SDS011;4818;50.860;4.648;2023-07-29T02:53:06;1.70;;;0.30;;
9559;SDS011;4818;50.860;4.648;2023-07-29T02:55:32;9.07;;;0.75;;
9559;SDS011;4818;50.860;4.648;2023-07-29T02:57:58;5.57;;;0.43;;
9559;SDS011;4818;50.860;4.648;2023-07-29T03:00:25;3.35;;;0.40;;
9559;SDS011;4818;50.860;4.648;2023-07-29T03:02:51;2.50;;;0.38;;
9559;SDS011;4818;50.860;4.648;2023-07-29T03:05:17;4.03;;;0.75;;
9559;SDS011;4818;50.860;4.648;2023-07-29T03:07:43;2.63;;;0.30;;
9559;SDS011;4818;50.860;4.648;2023-07-29T03:10:10;0.88;;;0.40;;
9559;SDS011;4818;50.860;4.648;2023-07-29T03:12:36;3.85;;;0.80;;
9559;SDS011;4818;50.860;4.648;2023-07-29T03:15:02;0.70;;;0.40;;
9559;SDS011;4818;50.860;4.648;2023-07-29T03:17:29;2.97;;;0.40;;
9559;SDS011;4818;50.860;4.648;2023-07-29T03:19:55;3.55;;;0.57;;
9559;SDS011;4818;50.860;4.648;2023-07-29T03:22:21;2.95;;;0.30;;
9559;SDS011;4818;50.860;4.648;2023-07-29T03:24:47;3.20;;;0.50;;
9559;SDS011;4818;50.860;4.648;2023-07-29T03:27:13;2.38;;;0.60;;
9559;SDS011;4818;50.860;4.648;2023-07-29T03:29:41;3.17;;;0.38;;
9559;SDS011;4818;50.860;4.648;2023-07-29T03:32:07;1.02;;;0.30;;
9559;SDS011;4818;50.860;4.648;2023-07-29T03:34:33;3.28;;;0.50;;
9559;SDS011;4818;50.860;4.648;2023-07-29T03:37:00;1.23;;;0.30;;
9559;SDS011;4818;50.860;4.648;2023-07-29T03:39:26;7.38;;;0.40;;
9559;SDS011;4818;50.860;4.648;2023-07-29T03:41:52;1.88;;;0.40;;
9559;SDS011;4818;50.860;4.648;2023-07-29T03:44:19;2.90;;;0.45;;
9559;SDS011;4818;50.860;4.648;2023-07-29T03:46:45;1.17;;;0.38;;
9559;SDS011;4818;50.860;4.648;2023-07-29T03:49:11;4.75;;;0.40;;
9559;SDS011;4818;50.860;4.648;2023-07-29T03:51:37;1.67;;;0.40;;
9559;SDS011;4818;50.860;4.648;2023-07-29T03:54:04;3.10;;;0.50;;
9559;SDS011;4818;50.860;4.648;2023-07-29T03:56:30;3.72;;;0.57;;
9559;SDS011;4818;50.860;4.648;2023-07-29T03:59:03;0.90;;;0.43;;
9559;SDS011;4818;50.860;4.648;2023-07-29T04:01:30;1.13;;;0.50;;
9559;SDS011;4818;50.860;4.648;2023-07-29T04:03:57;1.10;;;0.40;;
9559;SDS011;4818;50.860;4.648;2023-07-29T04:06:23;2.45;;;0.40;;
9559;SDS011;4818;50.860;4.648;2023-07-29T04:08:49;4.80;;;0.60;;
9559;SDS011;4818;50.860;4.648;2023-07-29T04:11:16;3.35;;;0.85;;
9559;SDS011;4818;50.860;4.648;2023-07-29T04:13:42;0.90;;;0.38;;
9559;SDS011;4818;50.860;4.648;2023-07-29T04:16:08;1.17;;;0.43;;
9559;SDS011;4818;50.860;4.648;2023-07-29T04:18:34;2.58;;;0.60;;
9559;SDS011;4818;50.860;4.648;2023-07-29T04:21:01;2.30;;;0.45;;
9559;SDS011;4818;50.860;4.648;2023-07-29T04:23:27;1.58;;;0.40;;
9559;SDS011;4818;50.860;4.648;2023-07-29T04:25:53;4.78;;;0.60;;
9559;SDS011;4818;50.860;4.648;2023-07-29T04:28:20;3.92;;;0.50;;
9559;SDS011;4818;50.860;4.648;2023-07-29T04:30:46;2.28;;;0.60;;
9559;SDS011;4818;50.860;4.648;2023-07-29T04:33:12;4.20;;;1.00;;
9559;SDS011;4818;50.860;4.648;2023-07-29T04:35:38;2.78;;;0.40;;
9559;SDS011;4818;50.860;4.648;2023-07-29T04:38:04;5.55;;;0.88;;
9559;SDS011;4818;50.860;4.648;2023-07-29T04:40:32;3.40;;;0.50;;
9559;SDS011;4818;50.860;4.648;2023-07-29T04:43:02;1.85;;;0.40;;
9559;SDS011;4818;50.860;4.648;2023-07-29T04:45:28;2.25;;;0.47;;
9559;SDS011;4818;50.860;4.648;2023-07-29T04:47:55;1.02;;;0.50;;
9559;SDS011;4818;50.860;4.648;2023-07-29T04:50:21;3.58;;;0.50;;
9559;SDS011;4818;50.860;4.648;2023-07-29T04:52:47;4.03;;;0.47;;
9559;SDS011;4818;50.860;4.648;2023-07-29T04:55:14;1.88;;;0.40;;
9559;SDS011;4818;50.860;4.648;2023-07-29T04:57:40;6.72;;;0.30;;
9559;SDS011;4818;50.860;4.648;2023-07-29T05:00:06;0.90;;;0.30;;
9559;SDS011;4818;50.860;4.648;2023-07-29T05:02:32;2.95;;;0.40;;
9559;SDS011;4818;50.860;4.648;2023-07-29T05:04:59;1.05;;;0.30;;
9559;SDS011;4818;50.860;4.648;2023-07-29T05:07:25;3.70;;;0.32;;
9559;SDS011;4818;50.860;4.648;2023-07-29T05:09:51;5.53;;;0.40;;
9559;SDS011;4818;50.860;4.648;2023-07-29T05:12:17;2.42;;;0.50;;
9559;SDS011;4818;50.860;4.648;2023-07-29T05:14:46;0.70;;;0.30;;
9559;SDS011;4818;50.860;4.648;2023-07-29T05:17:13;0.88;;;0.30;;
9559;SDS011;4818;50.860;4.648;2023-07-29T05:19:39;3.67;;;0.30;;
9559;SDS011;4818;50.860;4.648;2023-07-29T05:22:05;4.60;;;0.50;;
9559;SDS011;4818;50.860;4.648;2023-07-29T05:24:32;3.40;;;0.47;;
9559;SDS011;4818;50.860;4.648;2023-07-29T05:26:58;0.70;;;0.30;;
9559;SDS011;4818;50.860;4.648;2023-07-29T05:29:24;4.75;;;0.40;;
9559;SDS011;4818;50.860;4.648;2023-07-29T05:31:50;3.00;;;0.45;;
9559;SDS011;4818;50.860;4.648;2023-07-29T05:34:16;1.52;;;0.38;;
9559;SDS011;4818;50.860;4.648;2023-07-29T05:36:42;4.10;;;0.30;;
9559;SDS011;4818;50.860;4.648;2023-07-29T05:39:09;2.03;;;0.30;;
9559;SDS011;4818;50.860;4.648;2023-07-29T05:41:37;2.15;;;0.30;;
9559;SDS011;4818;50.860;4.648;2023-07-29T05:44:03;1.90;;;0.30;;
9559;SDS011;4818;50.860;4.648;2023-07-29T05:46:29;2.22;;;0.30;;
9559;SDS011;4818;50.860;4.648;2023-07-29T05:48:55;2.88;;;0.30;;
9559;SDS011;4818;50.860;4.648;2023-07-29T05:51:22;1.85;;;0.52;;
9559;SDS011;4818;50.860;4.648;2023-07-29T05:53:48;1.55;;;0.30;;
9559;SDS011;4818;50.860;4.648;2023-07-29T05:56:14;1.80;;;0.50;;
9559;SDS011;4818;50.860;4.648;2023-07-29T05:58:40;2.35;;;0.40;;
9559;SDS011;4818;50.860;4.648;2023-07-29T06:01:06;1.70;;;0.40;;
9559;SDS011;4818;50.860;4.648;2023-07-29T06:03:33;2.30;;;0.32;;
9559;SDS011;4818;50.860;4.648;2023-07-29T06:05:59;4.15;;;0.52;;
9559;SDS011;4818;50.860;4.648;2023-07-29T06:08:25;1.40;;;0.20;;
9559;SDS011;4818;50.860;4.648;2023-07-29T06:10:53;2.33;;;0.30;;
9559;SDS011;4818;50.860;4.648;2023-07-29T06:13:19;1.98;;;0.30;;
9559;SDS011;4818;50.860;4.648;2023-07-29T06:15:46;1.05;;;0.40;;
9559;SDS011;4818;50.860;4.648;2023-07-29T06:18:12;0.98;;;0.30;;
9559;SDS011;4818;50.860;4.648;2023-07-29T06:20:38;1.55;;;0.25;;
9559;SDS011;4818;50.860;4.648;2023-07-29T06:23:04;3.00;;;0.30;;
9559;SDS011;4818;50.860;4.648;2023-07-29T06:25:31;2.25;;;0.25;;
9559;SDS011;4818;50.860;4.648;2023-07-29T06:27:57;0.60;;;0.30;;
9559;SDS011;4818;50.860;4.648;2023-07-29T06:30:23;2.95;;;0.30;;
9559;SDS011;4818;50.860;4.648;2023-07-29T06:32:49;2.85;;;0.30;;
9559;SDS011;4818;50.860;4.648;2023-07-29T06:35:16;4.32;;;0.28;;
9559;SDS011;4818;50.860;4.648;2023-07-29T06:37:42;1.42;;;0.30;;
9559;SDS011;4818;50.860;4.648;2023-07-29T06:40:08;2.53;;;0.32;;
9559;SDS011;4818;50.860;4.648;2023-07-29T06:42:35;4.40;;;0.22;;
9559;SDS011;4818;50.860;4.648;2023-07-29T06:45:02;1.98;;;0.20;;
9559;SDS011;4818;50.860;4.648;2023-07-29T06:47:28;0.65;;;0.22;;
9559;SDS011;4818;50.860;4.648;2023-07-29T06:49:55;0.65;;;0.20;;
9559;SDS011;4818;50.860;4.648;2023-07-29T06:52:21;1.90;;;0.20;;
9559;SDS011;4818;50.860;4.648;2023-07-29T06:54:47;0.68;;;0.20;;
9559;SDS011;4818;50.860;4.648;2023-07-29T06:57:13;0.50;;;0.20;;
9559;SDS011;4818;50.860;4.648;2023-07-29T06:59:39;0.75;;;0.20;;
9559;SDS011;4818;50.860;4.648;2023-07-29T07:02:06;0.75;;;0.20;;
9559;SDS011;4818;50.860;4.648;2023-07-29T07:04:32;0.57;;;0.20;;
9559;SDS011;4818;50.860;4.648;2023-07-29T07:06:58;0.40;;;0.10;;
9559;SDS011;4818;50.860;4.648;2023-07-29T07:09:25;0.73;;;0.20;;
9559;SDS011;4818;50.860;4.648;2023-07-29T07:11:52;2.00;;;0.20;;
9559;SDS011;4818;50.860;4.648;2023-07-29T07:14:18;0.73;;;0.20;;
9559;SDS011;4818;50.860;4.648;2023-07-29T07:16:44;2.85;;;0.20;;
9559;SDS011;4818;50.860;4.648;2023-07-29T07:19:10;1.08;;;0.13;;
9559;SDS011;4818;50.860;4.648;2023-07-29T07:21:37;0.35;;;0.15;;
9559;SDS011;4818;50.860;4.648;2023-07-29T07:24:03;1.00;;;0.20;;
9559;SDS011;4818;50.860;4.648;2023-07-29T07:26:30;0.30;;;0.20;;
9559;SDS011;4818;50.860;4.648;2023-07-29T07:28:56;0.50;;;0.20;;
9559;SDS011;4818;50.860;4.648;2023-07-29T07:31:22;1.10;;;0.25;;
9559;SDS011;4818;50.860;4.648;2023-07-29T07:33:49;0.80;;;0.10;;
9559;SDS011;4818;50.860;4.648;2023-07-29T07:36:15;1.40;;;0.30;;
9559;SDS011;4818;50.860;4.648;2023-07-29T07:38:41;2.22;;;0.30;;
9559;SDS011;4818;50.860;4.648;2023-07-29T07:41:07;0.47;;;0.20;;
9559;SDS011;4818;50.860;4.648;2023-07-29T07:43:33;0.57;;;0.20;;
9559;SDS011;4818;50.860;4.648;2023-07-29T07:46:00;1.23;;;0.10;;
9559;SDS011;4818;50.860;4.648;2023-07-29T07:48:27;1.27;;;0.20;;
9559;SDS011;4818;50.860;4.648;2023-07-29T07:50:53;1.48;;;0.20;;
9559;SDS011;4818;50.860;4.648;2023-07-29T07:53:19;3.65;;;0.30;;
9559;SDS011;4818;50.860;4.648;2023-07-29T07:55:46;1.23;;;0.25;;
9559;SDS011;4818;50.860;4.648;2023-07-29T07:58:12;0.98;;;0.20;;
9559;SDS011;4818;50.860;4.648;2023-07-29T08:00:38;3.70;;;0.20;;
9559;SDS011;4818;50.860;4.648;2023-07-29T08:03:05;0.50;;;0.20;;
9559;SDS011;4818;50.860;4.648;2023-07-29T08:05:31;2.25;;;0.30;;
9559;SDS011;4818;50.860;4.648;2023-07-29T08:07:57;0.32;;;0.15;;
9559;SDS011;4818;50.860;4.648;2023-07-29T08:10:23;0.95;;;0.20;;
9559;SDS011;4818;50.860;4.648;2023-07-29T08:12:50;1.95;;;0.20;;
9559;SDS011;4818;50.860;4.648;2023-07-29T08:15:16;0.50;;;0.30;;
9559;SDS011;4818;50.860;4.648;2023-07-29T08:17:42;0.50;;;0.20;;
9559;SDS011;4818;50.860;4.648;2023-07-29T08:20:08;0.80;;;0.20;;
9559;SDS011;4818;50.860;4.648;2023-07-29T08:22:34;0.73;;;0.20;;
9559;SDS011;4818;50.860;4.648;2023-07-29T08:25:01;1.42;;;0.20;;
9559;SDS011;4818;50.860;4.648;2023-07-29T08:27:27;1.10;;;0.20;;
9559;SDS011;4818;50.860;4.648;2023-07-29T08:29:53;1.65;;;0.20;;
9559;SDS011;4818;50.860;4.648;2023-07-29T08:32:20;1.67;;;0.43;;
9559;SDS011;4818;50.860;4.648;2023-07-29T08:34:46;0.90;;;0.20;;
9559;SDS011;4818;50.860;4.648;2023-07-29T08:37:12;0.93;;;0.43;;
9559;SDS011;4818;50.860;4.648;2023-07-29T08:39:38;0.32;;;0.13;;
9559;SDS011;4818;50.860;4.648;2023-07-29T08:42:04;0.77;;;0.22;;
9559;SDS011;4818;50.860;4.648;2023-07-29T08:44:35;0.77;;;0.20;;
9559;SDS011;4818;50.860;4.648;2023-07-29T08:47:02;0.50;;;0.20;;
9559;SDS011;4818;50.860;4.648;2023-07-29T08:49:28;0.82;;;0.20;;
9559;SDS011;4818;50.860;4.648;2023-07-29T08:51:55;0.95;;;0.10;;
9559;SDS011;4818;50.860;4.648;2023-07-29T08:54:23;0.50;;;0.20;;
9559;SDS011;4818;50.860;4.648;2023-07-29T08:56:49;1.77;;;0.20;;
9559;SDS011;4818;50.860;4.648;2023-07-29T08:59:16;0.95;;;0.10;;
9559;SDS011;4818;50.860;4.648;2023-07-29T09:01:42;0.50;;;0.20;;
9559;SDS011;4818;50.860;4.648;2023-07-29T09:04:09;0.70;;;0.22;;
9559;SDS011;4818;50.860;4.648;2023-07-29T09:06:35;1.77;;;0.30;;
9559;SDS011;4818;50.860;4.648;2023-07-29T09:09:03;3.10;;;0.20;;
9559;SDS011;4818;50.860;4.648;2023-07-29T09:11:30;0.45;;;0.20;;
9559;SDS011;4818;50.860;4.648;2023-07-29T09:13:56;2.05;;;0.20;;
9559;SDS011;4818;50.860;4.648;2023-07-29T09:16:23;0.82;;;0.10;;
9559;SDS011;4818;50.860;4.648;2023-07-29T09:18:50;0.82;;;0.20;;
9559;SDS011;4818;50.860;4.648;2023-07-29T09:21:17;0.60;;;0.20;;
9559;SDS011;4818;50.860;4.648;2023-07-29T09:23:44;0.28;;;0.10;;
9559;SDS011;4818;50.860;4.648;2023-07-29T09:26:10;0.80;;;0.20;;
9559;SDS011;4818;50.860;4.648;2023-07-29T09:28:37;1.75;;;0.20;;
9559;SDS011;4818;50.860;4.648;2023-07-29T09:31:04;0.93;;;0.20;;
9559;SDS011;4818;50.860;4.648;2023-07-29T09:33:33;0.45;;;0.20;;
9559;SDS011;4818;50.860;4.648;2023-07-29T09:36:11;2.67;;;0.20;;
9559;SDS011;4818;50.860;4.648;2023-07-29T09:38:38;2.60;;;0.22;;
9559;SDS011;4818;50.860;4.648;2023-07-29T09:41:04;0.68;;;0.20;;
9559;SDS011;4818;50.860;4.648;2023-07-29T09:43:31;1.05;;;0.32;;
9559;SDS011;4818;50.860;4.648;2023-07-29T09:46:01;1.52;;;0.20;;
9559;SDS011;4818;50.860;4.648;2023-07-29T09:48:28;1.63;;;0.28;;
9559;SDS011;4818;50.860;4.648;2023-07-29T09:50:54;0.57;;;0.30;;
9559;SDS011;4818;50.860;4.648;2023-07-29T09:53:21;0.73;;;0.60;;
9559;SDS011;4818;50.860;4.648;2023-07-29T09:55:47;0.70;;;0.30;;
9559;SDS011;4818;50.860;4.648;2023-07-29T09:58:19;1.73;;;0.20;;
9559;SDS011;4818;50.860;4.648;2023-07-29T10:00:45;0.73;;;0.20;;
9559;SDS011;4818;50.860;4.648;2023-07-29T10:03:12;0.65;;;0.30;;
9559;SDS011;4818;50.860;4.648;2023-07-29T10:05:39;1.00;;;0.30;;
9559;SDS011;4818;50.860;4.648;2023-07-29T10:08:06;0.90;;;0.30;;
9559;SDS011;4818;50.860;4.648;2023-07-29T10:10:32;1.33;;;0.20;;
9559;SDS011;4818;50.860;4.648;2023-07-29T10:12:59;1.00;;;0.30;;
9559;SDS011;4818;50.860;4.648;2023-07-29T10:15:27;1.05;;;0.30;;
9559;SDS011;4818;50.860;4.648;2023-07-29T10:17:54;1.33;;;0.22;;
9559;SDS011;4818;50.860;4.648;2023-07-29T10:20:21;0.40;;;0.20;;
9559;SDS011;4818;50.860;4.648;2023-07-29T10:22:47;4.72;;;0.40;;
9559;SDS011;4818;50.860;4.648;2023-07-29T10:25:17;1.33;;;0.35;;
9559;SDS011;4818;50.860;4.648;2023-07-29T10:30:11;1.23;;;0.30;;
9559;SDS011;4818;50.860;4.648;2023-07-29T10:32:38;1.05;;;0.40;;
9559;SDS011;4818;50.860;4.648;2023-07-29T10:35:06;1.98;;;0.22;;
9559;SDS011;4818;50.860;4.648;2023-07-29T10:37:32;2.17;;;0.30;;
9559;SDS011;4818;50.860;4.648;2023-07-29T10:39:59;5.40;;;0.80;;
9559;SDS011;4818;50.860;4.648;2023-07-29T10:42:25;3.55;;;0.75;;
9559;SDS011;4818;50.860;4.648;2023-07-29T10:44:52;2.63;;;0.45;;
9559;SDS011;4818;50.860;4.648;2023-07-29T10:47:19;3.25;;;0.40;;
9559;SDS011;4818;50.860;4.648;2023-07-29T10:49:50;5.55;;;0.40;;
9559;SDS011;4818;50.860;4.648;2023-07-29T10:52:27;3.47;;;0.50;;
9559;SDS011;4818;50.860;4.648;2023-07-29T10:54:54;2.58;;;0.70;;
9559;SDS011;4818;50.860;4.648;2023-07-29T10:57:38;5.00;;;0.70;;
9559;SDS011;4818;50.860;4.648;2023-07-29T11:00:08;3.40;;;0.60;;
9559;SDS011;4818;50.860;4.648;2023-07-29T11:02:35;1.15;;;0.57;;
9559;SDS011;4818;50.860;4.648;2023-07-29T11:05:15;5.70;;;0.50;;
9559;SDS011;4818;50.860;4.648;2023-07-29T11:07:45;2.35;;;0.40;;
9559;SDS011;4818;50.860;4.648;2023-07-29T11:10:12;5.47;;;0.50;;
9559;SDS011;4818;50.860;4.648;2023-07-29T11:12:42;2.20;;;0.43;;
9559;SDS011;4818;50.860;4.648;2023-07-29T11:17:50;1.48;;;0.65;;
9559;SDS011;4818;50.860;4.648;2023-07-29T11:20:18;3.72;;;0.70;;
9559;SDS011;4818;50.860;4.648;2023-07-29T11:22:45;3.22;;;0.50;;
9559;SDS011;4818;50.860;4.648;2023-07-29T11:25:12;4.45;;;0.40;;
9559;SDS011;4818;50.860;4.648;2023-07-29T11:27:42;3.00;;;0.50;;
9559;SDS011;4818;50.860;4.648;2023-07-29T11:30:10;1.38;;;0.50;;
9559;SDS011;4818;50.860;4.648;2023-07-29T11:32:37;1.08;;;0.40;;
9559;SDS011;4818;50.860;4.648;2023-07-29T11:35:08;1.63;;;0.52;;
9559;SDS011;4818;50.860;4.648;2023-07-29T11:37:39;2.83;;;0.40;;
9559;SDS011;4818;50.860;4.648;2023-07-29T11:40:05;1.77;;;0.82;;
9559;SDS011;4818;50.860;4.648;2023-07-29T11:42:33;2.92;;;0.70;;
9559;SDS011;4818;50.860;4.648;2023-07-29T11:45:00;2.30;;;0.65;;
9559;SDS011;4818;50.860;4.648;2023-07-29T11:47:28;2.50;;;0.60;;
9559;SDS011;4818;50.860;4.648;2023-07-29T11:49:57;1.40;;;0.50;;
9559;SDS011;4818;50.860;4.648;2023-07-29T11:52:24;2.20;;;0.70;;
9559;SDS011;4818;50.860;4.648;2023-07-29T11:54:50;0.63;;;0.50;;
9559;SDS011;4818;50.860;4.648;2023-07-29T11:57:17;2.00;;;0.45;;
9559;SDS011;4818;50.860;4.648;2023-07-29T11:59:43;2.00;;;0.40;;
9559;SDS011;4818;50.860;4.648;2023-07-29T12:02:13;0.98;;;0.40;;
9559;SDS011;4818;50.860;4.648;2023-07-29T12:04:39;1.08;;;0.30;;
9559;SDS011;4818;50.860;4.648;2023-07-29T12:07:06;1.50;;;0.32;;
9559;SDS011;4818;50.860;4.648;2023-07-29T12:09:33;1.63;;;0.30;;
9559;SDS011;4818;50.860;4.648;2023-07-29T12:12:01;0.40;;;0.30;;
9559;SDS011;4818;50.860;4.648;2023-07-29T12:14:30;0.98;;;0.35;;
9559;SDS011;4818;50.860;4.648;2023-07-29T12:19:23;2.05;;;0.43;;
9559;SDS011;4818;50.860;4.648;2023-07-29T12:21:50;1.88;;;0.40;;
9559;SDS011;4818;50.860;4.648;2023-07-29T12:24:16;0.82;;;0.30;;
9559;SDS011;4818;50.860;4.648;2023-07-29T12:26:42;2.25;;;0.40;;
9559;SDS011;4818;50.860;4.648;2023-07-29T12:29:13;1.10;;;0.40;;
9559;SDS011;4818;50.860;4.648;2023-07-29T12:31:40;0.60;;;0.35;;
9559;SDS011;4818;50.860;4.648;2023-07-29T12:34:06;2.25;;;0.40;;
9559;SDS011;4818;50.860;4.648;2023-07-29T12:36:43;2.22;;;0.50;;
9559;SDS011;4818;50.860;4.648;2023-07-29T12:39:22;0.85;;;0.43;;
9559;SDS011;4818;50.860;4.648;2023-07-29T12:44:15;1.88;;;0.63;;
9559;SDS011;4818;50.860;4.648;2023-07-29T12:46:41;1.73;;;0.50;;
9559;SDS011;4818;50.860;4.648;2023-07-29T12:49:07;0.55;;;0.30;;
9559;SDS011;4818;50.860;4.648;2023-07-29T12:51:34;4.25;;;0.73;;
9559;SDS011;4818;50.860;4.648;2023-07-29T12:54:01;2.65;;;0.65;;
9559;SDS011;4818;50.860;4.648;2023-07-29T12:56:28;3.90;;;0.82;;
9559;SDS011;4818;50.860;4.648;2023-07-29T12:58:56;3.88;;;1.13;;
9559;SDS011;4818;50.860;4.648;2023-07-29T13:01:23;3.35;;;0.80;;
9559;SDS011;4818;50.860;4.648;2023-07-29T13:03:49;2.58;;;1.05;;
9559;SDS011;4818;50.860;4.648;2023-07-29T13:06:16;2.65;;;0.85;;
9559;SDS011;4818;50.860;4.648;2023-07-29T13:08:42;2.88;;;0.90;;
9559;SDS011;4818;50.860;4.648;2023-07-29T13:11:09;1.67;;;0.50;;
9559;SDS011;4818;50.860;4.648;2023-07-29T13:13:35;1.92;;;0.60;;
9559;SDS011;4818;50.860;4.648;2023-07-29T13:16:01;1.20;;;0.57;;
9559;SDS011;4818;50.860;4.648;2023-07-29T13:18:28;0.90;;;0.50;;
9559;SDS011;4818;50.860;4.648;2023-07-29T13:20:54;1.80;;;0.47;;
9559;SDS011;4818;50.860;4.648;2023-07-29T13:23:20;0.80;;;0.40;;
9559;SDS011;4818;50.860;4.648;2023-07-29T13:25:47;0.93;;;0.47;;
9559;SDS011;4818;50.860;4.648;2023-07-29T13:28:13;1.95;;;0.60;;
9559;SDS011;4818;50.860;4.648;2023-07-29T13:30:39;1.73;;;0.80;;
9559;SDS011;4818;50.860;4.648;2023-07-29T13:33:06;1.08;;;0.40;;
9559;SDS011;4818;50.860;4.648;2023-07-29T13:35:32;1.92;;;0.50;;
9559;SDS011;4818;50.860;4.648;2023-07-29T13:37:59;1.05;;;0.30;;
9559;SDS011;4818;50.860;4.648;2023-07-29T13:40:26;1.67;;;0.40;;
9559;SDS011;4818;50.860;4.648;2023-07-29T13:42:52;0.60;;;0.40;;
9559;SDS011;4818;50.860;4.648;2023-07-29T13:45:18;0.70;;;0.40;;
9559;SDS011;4818;50.860;4.648;2023-07-29T13:47:44;0.63;;;0.32;;
9559;SDS011;4818;50.860;4.648;2023-07-29T13:50:11;0.98;;;0.30;;
9559;SDS011;4818;50.860;4.648;2023-07-29T13:52:37;1.58;;;0.40;;
9559;SDS011;4818;50.860;4.648;2023-07-29T13:55:04;1.60;;;0.50;;
9559;SDS011;4818;50.860;4.648;2023-07-29T13:57:34;0.73;;;0.45;;
9559;SDS011;4818;50.860;4.648;2023-07-29T14:00:00;1.23;;;0.52;;
9559;SDS011;4818;50.860;4.648;2023-07-29T14:02:27;0.90;;;0.40;;
9559;SDS011;4818;50.860;4.648;2023-07-29T14:04:53;1.98;;;0.47;;
9559;SDS011;4818;50.860;4.648;2023-07-29T14:07:19;0.82;;;0.47;;
9559;SDS011;4818;50.860;4.648;2023-07-29T14:09:46;3.00;;;0.80;;
9559;SDS011;4818;50.860;4.648;2023-07-29T14:12:12;0.85;;;0.50;;
9559;SDS011;4818;50.860;4.648;2023-07-29T14:14:41;0.68;;;0.30;;
9559;SDS011;4818;50.860;4.648;2023-07-29T14:17:07;2.35;;;0.40;;
9559;SDS011;4818;50.860;4.648;2023-07-29T14:19:35;1.38;;;0.50;;
9559;SDS011;4818;50.860;4.648;2023-07-29T14:22:01;1.17;;;0.30;;
9559;SDS011;4818;50.860;4.648;2023-07-29T14:24:27;0.77;;;0.40;;
9559;SDS011;4818;50.860;4.648;2023-07-29T14:26:54;0.30;;;0.20;;
9559;SDS011;4818;50.860;4.648;2023-07-29T14:29:20;1.67;;;0.30;;
9559;SDS011;4818;50.860;4.648;2023-07-29T14:31:46;1.85;;;0.28;;
9559;SDS011;4818;50.860;4.648;2023-07-29T14:34:12;0.30;;;0.20;;
9559;SDS011;4818;50.860;4.648;2023-07-29T14:36:39;0.32;;;0.20;;
9559;SDS011;4818;50.860;4.648;2023-07-29T14:39:05;2.95;;;0.20;;
9559;SDS011;4818;50.860;4.648;2023-07-29T14:41:32;0.40;;;0.20;;
9559;SDS011;4818;50.860;4.648;2023-07-29T14:43:58;0.98;;;0.20;;
9559;SDS011;4818;50.860;4.648;2023-07-29T14:46:24;0.60;;;0.20;;
9559;SDS011;4818;50.860;4.648;2023-07-29T14:48:50;0.57;;;0.25;;
9559;SDS011;4818;50.860;4.648;2023-07-29T14:51:17;2.05;;;0.10;;
9559;SDS011;4818;50.860;4.648;2023-07-29T14:53:44;0.90;;;0.20;;
9559;SDS011;4818;50.860;4.648;2023-07-29T14:56:10;0.82;;;0.20;;
9559;SDS011;4818;50.860;4.648;2023-07-29T14:58:38;0.32;;;0.20;;
9559;SDS011;4818;50.860;4.648;2023-07-29T15:01:05;0.90;;;0.20;;
9559;SDS011;4818;50.860;4.648;2023-07-29T15:03:31;0.75;;;0.20;;
9559;SDS011;4818;50.860;4.648;2023-07-29T15:05:57;0.30;;;0.20;;
9559;SDS011;4818;50.860;4.648;2023-07-29T15:08:24;1.60;;;0.20;;
9559;SDS011;4818;50.860;4.648;2023-07-29T15:10:50;0.40;;;0.20;;
9559;SDS011;4818;50.860;4.648;2023-07-29T15:13:16;1.85;;;0.20;;
9559;SDS011;4818;50.860;4.648;2023-07-29T15:15:44;1.13;;;0.20;;
9559;SDS011;4818;50.860;4.648;2023-07-29T15:18:10;1.40;;;0.10;;
9559;SDS011;4818;50.860;4.648;2023-07-29T15:20:37;1.65;;;0.30;;
9559;SDS011;4818;50.860;4.648;2023-07-29T15:23:04;1.05;;;0.20;;
9559;SDS011;4818;50.860;4.648;2023-07-29T15:25:31;1.17;;;0.20;;
9559;SDS011;4818;50.860;4.648;2023-07-29T15:27:57;0.85;;;0.20;;
9559;SDS011;4818;50.860;4.648;2023-07-29T15:30:23;0.57;;;0.20;;